Time,TemperatureF,DewpointF,PressureIn,WindDirection,WindDirectionDegrees,WindSpeedMPH,WindSpeedGustMPH,Humidity,HourlyPrecipIn,Conditions,Clouds,dailyrainin,SoftwareType,DateUTC
2013-08-05 00:03:00,54.5,51.7,29.83,North,0,0.0,-999.0,90,0.00,,,-99.99,,2013-08-05 08:03:00,
2013-08-05 00:09:00,54.5,51.8,29.83,North,0,0.0,-999.0,90,0.00,,,-99.99,,2013-08-05 08:09:00,
2013-08-05 00:14:00,54.6,51.4,29.83,North,0,0.0,-999.0,88,0.00,,,-99.99,,2013-08-05 08:14:00,
2013-08-05 00:18:00,54.6,51.4,29.83,North,0,0.0,-999.0,88,0.00,,,-99.99,,2013-08-05 08:18:00,
2013-08-05 00:23:00,54.5,51.4,29.83,North,0,0.0,-999.0,88,0.00,,,-99.99,,2013-08-05 08:23:00,
2013-08-05 00:29:00,54.5,51.5,29.83,North,0,0.0,-999.0,89,0.00,,,-99.99,,2013-08-05 08:29:00,
2013-08-05 00:34:00,54.5,51.6,29.83,North,0,0.0,-999.0,89,0.00,,,-99.99,,2013-08-05 08:34:00,
2013-08-05 00:40:00,54.4,51.4,29.83,North,0,0.0,-999.0,89,0.00,,,-99.99,,2013-08-05 08:40:00,
2013-08-05 00:47:00,54.2,51.4,29.83,North,0,0.0,-999.0,90,0.00,,,-99.99,,2013-08-05 08:47:00,
2013-08-05 00:54:00,54.0,51.2,29.83,North,0,0.0,-999.0,90,0.00,,,-99.99,,2013-08-05 08:54:00,
2013-08-05 00:59:00,54.0,51.2,29.83,North,0,0.0,-999.0,90,0.00,,,-99.99,,2013-08-05 08:59:00,
2013-08-05 01:03:00,54.2,51.6,29.85,North,0,0.0,-999.0,90,0.00,,,-99.99,,2013-08-05 09:03:00,
2013-08-05 01:08:00,54.3,51.5,29.85,North,0,0.0,-999.0,90,0.00,,,-99.99,,2013-08-05 09:08:00,
2013-08-05 01:15:00,54.3,51.3,29.85,North,0,0.0,-999.0,89,0.00,,,-99.99,,2013-08-05 09:15:00,
2013-08-05 01:20:00,54.4,51.7,29.85,North,0,0.0,-999.0,90,0.00,,,-99.99,,2013-08-05 09:20:00,
2013-08-05 01:25:00,54.5,51.5,29.85,North,0,0.0,-999.0,89,0.00,,,-99.99,,2013-08-05 09:25:00,
2013-08-05 01:30:00,54.2,51.4,29.85,North,0,0.0,-999.0,90,0.00,,,-99.99,,2013-08-05 09:30:00,
2013-08-05 01:42:00,54.5,51.7,29.85,North,0,0.0,-999.0,90,0.00,,,-99.99,,2013-08-05 09:42:00,
2013-08-05 01:48:00,54.3,51.3,29.85,North,0,0.0,-999.0,89,0.00,,,-99.99,,2013-08-05 09:48:00,
2013-08-05 01:53:00,54.1,51.2,29.85,North,0,0.0,-999.0,89,0.00,,,-99.99,,2013-08-05 09:53:00,
2013-08-05 01:59:00,54.1,51.2,29.85,North,0,0.0,-999.0,89,0.00,,,-99.99,,2013-08-05 09:59:00,
2013-08-05 02:04:00,54.4,51.6,29.85,North,0,0.0,-999.0,90,0.00,,,-99.99,,2013-08-05 10:04:00,
2013-08-05 02:10:00,54.5,51.4,29.85,North,0,0.0,-999.0,89,0.00,,,-99.99,,2013-08-05 10:10:00,
2013-08-05 02:15:00,54.5,51.3,29.85,North,0,0.0,-999.0,88,0.00,,,-99.99,,2013-08-05 10:15:00,
2013-08-05 02:20:00,54.6,51.6,29.85,North,0,0.0,-999.0,89,0.00,,,-99.99,,2013-08-05 10:20:00,
2013-08-05 02:25:00,54.3,51.4,29.85,North,0,0.0,-999.0,89,0.00,,,-99.99,,2013-08-05 10:25:00,
2013-08-05 02:29:00,54.2,51.2,29.85,North,0,0.0,-999.0,89,0.00,,,-99.99,,2013-08-05 10:29:00,
2013-08-05 02:35:00,54.2,51.7,29.85,North,0,0.0,-999.0,91,0.00,,,-99.99,,2013-08-05 10:35:00,
2013-08-05 02:40:00,54.3,51.4,29.85,North,0,0.0,-999.0,89,0.00,,,-99.99,,2013-08-05 10:40:00,
2013-08-05 02:44:00,54.2,51.4,29.85,North,0,0.0,-999.0,90,0.00,,,-99.99,,2013-08-05 10:44:00,
2013-08-05 02:49:00,53.9,51.3,29.85,North,0,0.0,-999.0,90,0.00,,,-99.99,,2013-08-05 10:49:00,
2013-08-05 02:54:00,54.0,51.6,29.85,North,0,0.0,-999.0,91,0.00,,,-99.99,,2013-08-05 10:54:00,
2013-08-05 03:00:00,54.0,51.5,29.85,North,0,0.0,-999.0,90,0.00,,,-99.99,,2013-08-05 11:00:00,
2013-08-05 03:04:00,54.3,51.6,29.85,North,0,0.0,-999.0,90,0.00,,,-99.99,,2013-08-05 11:04:00,
2013-08-05 03:15:00,54.5,51.6,29.85,North,0,0.0,-999.0,89,0.00,,,-99.99,,2013-08-05 11:15:00,
2013-08-05 03:20:00,54.6,51.5,29.85,North,0,0.0,-999.0,89,0.00,,,-99.99,,2013-08-05 11:20:00,
2013-08-05 03:26:00,54.3,51.4,29.85,North,0,0.0,-999.0,89,0.00,,,-99.99,,2013-08-05 11:26:00,
2013-08-05 03:32:00,54.3,51.6,29.85,North,0,0.0,-999.0,90,0.00,,,-99.99,,2013-08-05 11:32:00,
2013-08-05 03:38:00,54.5,51.6,29.85,North,0,0.0,-999.0,89,0.00,,,-99.99,,2013-08-05 11:38:00,
2013-08-05 03:43:00,54.5,51.6,29.85,North,0,0.0,-999.0,89,0.00,,,-99.99,,2013-08-05 11:43:00,
2013-08-05 03:47:00,54.3,51.4,29.85,North,0,0.0,-999.0,89,0.00,,,-99.99,,2013-08-05 11:47:00,
2013-08-05 03:53:00,54.3,51.5,29.85,North,0,0.0,-999.0,90,0.00,,,-99.99,,2013-08-05 11:53:00,
2013-08-05 03:58:00,54.5,51.8,29.85,North,0,0.0,-999.0,90,0.00,,,-99.99,,2013-08-05 11:58:00,
2013-08-05 04:03:00,54.3,51.5,29.84,North,0,0.0,-999.0,89,0.00,,,-99.99,,2013-08-05 12:03:00,
2013-08-05 04:07:00,54.6,51.8,29.84,North,0,0.0,-999.0,90,0.00,,,-99.99,,2013-08-05 12:07:00,
2013-08-05 04:13:00,54.5,51.5,29.84,North,0,0.0,-999.0,89,0.00,,,-99.99,,2013-08-05 12:13:00,
2013-08-05 04:18:00,54.4,51.6,29.84,North,0,0.0,-999.0,90,0.00,,,-99.99,,2013-08-05 12:18:00,
2013-08-05 04:23:00,54.5,51.5,29.84,North,0,0.0,-999.0,89,0.00,,,-99.99,,2013-08-05 12:23:00,
2013-08-05 04:28:00,54.5,51.7,29.84,North,0,0.0,-999.0,90,0.00,,,-99.99,,2013-08-05 12:28:00,
2013-08-05 04:32:00,54.5,51.7,29.84,North,0,0.0,-999.0,89,0.00,,,-99.99,,2013-08-05 12:32:00,
2013-08-05 04:37:00,54.7,51.8,29.84,North,0,0.0,-999.0,89,0.00,,,-99.99,,2013-08-05 12:37:00,
2013-08-05 04:43:00,54.3,51.4,29.84,North,0,0.0,-999.0,89,0.00,,,-99.99,,2013-08-05 12:43:00,
2013-08-05 04:48:00,54.4,51.6,29.84,North,0,0.0,-999.0,90,0.00,,,-99.99,,2013-08-05 12:48:00,
2013-08-05 04:52:00,54.6,51.7,29.84,North,0,0.0,-999.0,89,0.00,,,-99.99,,2013-08-05 12:52:00,
2013-08-05 04:58:00,54.4,51.3,29.84,North,0,0.0,-999.0,89,0.00,,,-99.99,,2013-08-05 12:58:00,
2013-08-05 05:03:00,54.6,51.7,29.83,North,0,0.0,-999.0,89,0.00,,,-99.99,,2013-08-05 13:03:00,
2013-08-05 05:07:00,54.5,51.4,29.83,North,0,0.0,-999.0,89,0.00,,,-99.99,,2013-08-05 13:07:00,
2013-08-05 05:13:00,54.3,51.2,29.83,North,0,0.0,-999.0,89,0.00,,,-99.99,,2013-08-05 13:13:00,
2013-08-05 05:18:00,54.4,51.3,29.83,North,0,0.0,-999.0,89,0.00,,,-99.99,,2013-08-05 13:18:00,
2013-08-05 05:22:00,54.5,51.3,29.83,North,0,0.0,-999.0,89,0.00,,,-99.99,,2013-08-05 13:22:00,
2013-08-05 05:28:00,54.5,51.3,29.83,North,0,0.0,-999.0,88,0.00,,,-99.99,,2013-08-05 13:28:00,
2013-08-05 05:35:00,54.5,51.1,29.83,North,0,0.0,-999.0,88,0.00,,,-99.99,,2013-08-05 13:35:00,
2013-08-05 05:40:00,54.0,51.1,29.83,North,0,0.0,-999.0,89,0.00,,,-99.99,,2013-08-05 13:40:00,
2013-08-05 05:49:00,53.8,51.1,29.83,North,0,0.0,-999.0,90,0.00,,,-99.99,,2013-08-05 13:49:00,
2013-08-05 05:54:00,53.6,51.0,29.83,North,0,0.0,-999.0,90,0.00,,,-99.99,,2013-08-05 13:54:00,
2013-08-05 06:00:00,53.7,51.2,29.83,North,0,0.0,-999.0,91,0.00,,,-99.99,,2013-08-05 14:00:00,
2013-08-05 06:04:00,53.6,51.0,29.83,North,0,0.0,-999.0,90,0.00,,,-99.99,,2013-08-05 14:04:00,
2013-08-05 06:11:00,53.5,51.1,29.83,North,0,0.0,-999.0,91,0.00,,,-99.99,,2013-08-05 14:11:00,
2013-08-05 06:18:00,53.5,51.0,29.83,North,0,0.0,-999.0,91,0.00,,,-99.99,,2013-08-05 14:18:00,
2013-08-05 06:25:00,53.8,51.4,29.83,North,0,0.0,-999.0,91,0.00,,,-99.99,,2013-08-05 14:25:00,
2013-08-05 06:30:00,53.2,50.9,29.83,North,0,0.0,-999.0,91,0.00,,,-99.99,,2013-08-05 14:30:00,
2013-08-05 06:35:00,53.2,50.9,29.83,North,0,0.0,-999.0,91,0.00,,,-99.99,,2013-08-05 14:35:00,
2013-08-05 06:39:00,52.9,50.8,29.83,North,0,0.0,-999.0,92,0.00,,,-99.99,,2013-08-05 14:39:00,
2013-08-05 06:46:00,52.9,51.0,29.83,North,0,0.0,-999.0,92,0.00,,,-99.99,,2013-08-05 14:46:00,
2013-08-05 06:53:00,53.0,51.0,29.83,North,0,0.0,-999.0,93,0.00,,,-99.99,,2013-08-05 14:53:00,
2013-08-05 06:58:00,52.7,50.7,29.83,North,0,0.0,-999.0,93,0.00,,,-99.99,,2013-08-05 14:58:00,
2013-08-05 07:03:00,53.0,51.2,29.83,North,0,0.0,-999.0,93,0.00,,,-99.99,,2013-08-05 15:03:00,
2013-08-05 07:08:00,53.2,51.3,29.83,North,0,0.0,-999.0,93,0.00,,,-99.99,,2013-08-05 15:08:00,
2013-08-05 07:13:00,53.4,51.3,29.83,North,0,0.0,-999.0,92,0.00,,,-99.99,,2013-08-05 15:13:00,
2013-08-05 07:18:00,53.5,51.3,29.83,North,0,0.0,-999.0,92,0.00,,,-99.99,,2013-08-05 15:18:00,
2013-08-05 07:22:00,53.8,51.5,29.83,North,0,0.0,-999.0,91,0.00,,,-99.99,,2013-08-05 15:22:00,
2013-08-05 07:28:00,53.6,51.1,29.83,North,0,0.0,-999.0,91,0.00,,,-99.99,,2013-08-05 15:28:00,
2013-08-05 07:33:00,53.7,51.2,29.83,North,0,0.0,-999.0,91,0.00,,,-99.99,,2013-08-05 15:33:00,
2013-08-05 07:39:00,54.0,51.5,29.83,North,0,0.0,-999.0,91,0.00,,,-99.99,,2013-08-05 15:39:00,
2013-08-05 07:46:00,54.2,51.5,29.83,North,0,0.0,-999.0,90,0.00,,,-99.99,,2013-08-05 15:46:00,
2013-08-05 07:52:00,54.2,51.6,29.83,North,0,0.0,-999.0,90,0.00,,,-99.99,,2013-08-05 15:52:00,
2013-08-05 07:57:00,53.7,51.2,29.83,North,0,0.0,-999.0,91,0.00,,,-99.99,,2013-08-05 15:57:00,
2013-08-05 08:03:00,53.5,51.4,29.82,North,0,0.0,-999.0,92,0.00,,,-99.99,,2013-08-05 16:03:00,
2013-08-05 08:08:00,53.5,51.5,29.82,North,0,0.0,-999.0,92,0.00,,,-99.99,,2013-08-05 16:08:00,
2013-08-05 08:15:00,53.7,52.0,29.82,North,0,0.0,-999.0,93,0.00,,,-99.99,,2013-08-05 16:15:00,
2013-08-05 08:20:00,53.4,51.6,29.82,North,0,0.0,-999.0,93,0.00,,,-99.99,,2013-08-05 16:20:00,
2013-08-05 08:25:00,53.4,51.8,29.82,North,0,0.0,-999.0,94,0.00,,,-99.99,,2013-08-05 16:25:00,
2013-08-05 08:29:00,53.2,51.5,29.82,North,0,0.0,-999.0,94,0.00,,,-99.99,,2013-08-05 16:29:00,
2013-08-05 08:35:00,53.0,51.4,29.82,North,0,0.0,-999.0,94,0.00,,,-99.99,,2013-08-05 16:35:00,
2013-08-05 08:40:00,53.0,51.6,29.82,North,0,0.0,-999.0,94,0.00,,,-99.99,,2013-08-05 16:40:00,
2013-08-05 08:46:00,52.9,51.6,29.82,North,0,0.0,-999.0,95,0.00,,,-99.99,,2013-08-05 16:46:00,
2013-08-05 08:51:00,53.0,51.7,29.82,North,0,0.0,-999.0,95,0.00,,,-99.99,,2013-08-05 16:51:00,
2013-08-05 08:57:00,52.7,51.3,29.82,North,0,0.0,-999.0,94,0.00,,,-99.99,,2013-08-05 16:57:00,
2013-08-05 09:02:00,52.8,51.6,29.83,North,0,0.0,-999.0,95,0.00,,,-99.99,,2013-08-05 17:02:00,
2013-08-05 09:08:00,53.1,52.0,29.83,North,0,0.0,-999.0,95,0.00,,,-99.99,,2013-08-05 17:08:00,
2013-08-05 09:13:00,53.4,52.2,29.83,North,0,0.0,-999.0,95,0.00,,,-99.99,,2013-08-05 17:13:00,
2013-08-05 09:18:00,53.4,52.0,29.83,North,0,0.0,-999.0,95,0.00,,,-99.99,,2013-08-05 17:18:00,
2013-08-05 09:24:00,53.0,51.6,29.83,North,0,0.0,-999.0,94,0.00,,,-99.99,,2013-08-05 17:24:00,
2013-08-05 09:29:00,53.0,51.8,29.83,North,0,0.0,-999.0,95,0.00,,,-99.99,,2013-08-05 17:29:00,
2013-08-05 09:35:00,53.3,52.2,29.83,North,0,0.0,-999.0,95,0.00,,,-99.99,,2013-08-05 17:35:00,
2013-08-05 09:43:00,53.2,52.0,29.83,North,0,0.0,-999.0,95,0.00,,,-99.99,,2013-08-05 17:43:00,
2013-08-05 09:49:00,53.5,52.4,29.83,North,0,0.0,-999.0,95,0.00,,,-99.99,,2013-08-05 17:49:00,
2013-08-05 09:54:00,54.2,53.1,29.83,North,0,0.0,-999.0,95,0.00,,,-99.99,,2013-08-05 17:54:00,
2013-08-05 10:01:00,54.8,53.6,29.83,North,0,0.0,-999.0,95,0.00,,,-99.99,,2013-08-05 18:01:00,
2013-08-05 10:08:00,54.8,53.1,29.83,North,0,0.0,-999.0,94,0.00,,,-99.99,,2013-08-05 18:08:00,
2013-08-05 10:15:00,54.7,53.1,29.83,North,0,0.0,-999.0,94,0.00,,,-99.99,,2013-08-05 18:15:00,
2013-08-05 10:20:00,54.5,52.8,29.83,North,0,0.0,-999.0,93,0.00,,,-99.99,,2013-08-05 18:20:00,
2013-08-05 10:25:00,54.1,52.3,29.83,North,0,0.0,-999.0,93,0.00,,,-99.99,,2013-08-05 18:25:00,
2013-08-05 10:30:00,54.3,52.7,29.83,North,0,0.0,-999.0,94,0.00,,,-99.99,,2013-08-05 18:30:00,
2013-08-05 10:37:00,54.7,53.1,29.83,North,0,0.0,-999.0,94,0.00,,,-99.99,,2013-08-05 18:37:00,
2013-08-05 10:44:00,54.5,52.8,29.83,North,0,0.0,-999.0,94,0.00,,,-99.99,,2013-08-05 18:44:00,
2013-08-05 10:49:00,54.3,52.5,29.83,North,0,0.0,-999.0,93,0.00,,,-99.99,,2013-08-05 18:49:00,
2013-08-05 10:54:00,54.3,52.7,29.83,North,0,0.0,-999.0,94,0.00,,,-99.99,,2013-08-05 18:54:00,
2013-08-05 10:59:00,54.3,52.7,29.83,North,0,0.0,-999.0,94,0.00,,,-99.99,,2013-08-05 18:59:00,
2013-08-05 11:04:00,54.7,53.1,29.83,North,0,0.0,-999.0,94,0.00,,,-99.99,,2013-08-05 19:04:00,
2013-08-05 11:09:00,54.3,52.5,29.83,North,0,0.0,-999.0,93,0.00,,,-99.99,,2013-08-05 19:09:00,
2013-08-05 11:16:00,54.5,53.0,29.83,North,0,0.0,-999.0,94,0.00,,,-99.99,,2013-08-05 19:16:00,
2013-08-05 11:21:00,54.1,52.6,29.83,North,0,0.0,-999.0,94,0.00,,,-99.99,,2013-08-05 19:21:00,
2013-08-05 11:30:00,54.3,53.0,29.83,North,0,0.0,-999.0,95,0.00,,,-99.99,,2013-08-05 19:30:00,
2013-08-05 11:35:00,53.8,52.2,29.83,North,0,0.0,-999.0,94,0.00,,,-99.99,,2013-08-05 19:35:00,
2013-08-05 11:40:00,53.8,52.4,29.83,North,0,0.0,-999.0,94,0.00,,,-99.99,,2013-08-05 19:40:00,
2013-08-05 11:45:00,53.6,52.2,29.83,North,0,0.0,-999.0,95,0.00,,,-99.99,,2013-08-05 19:45:00,
2013-08-05 11:50:00,54.0,52.6,29.83,North,0,0.0,-999.0,95,0.00,,,-99.99,,2013-08-05 19:50:00,
2013-08-05 11:55:00,53.7,52.3,29.83,North,0,0.0,-999.0,94,0.00,,,-99.99,,2013-08-05 19:55:00,
2013-08-05 12:03:00,53.4,51.9,29.81,North,0,0.0,-999.0,94,0.00,,,-99.99,,2013-08-05 20:03:00,
2013-08-05 12:08:00,53.2,51.9,29.81,North,0,0.0,-999.0,95,0.00,,,-99.99,,2013-08-05 20:08:00,
2013-08-05 12:13:00,53.6,52.5,29.81,North,0,0.0,-999.0,95,0.00,,,-99.99,,2013-08-05 20:13:00,
2013-08-05 12:18:00,53.6,52.4,29.81,North,0,0.0,-999.0,95,0.00,,,-99.99,,2013-08-05 20:18:00,
2013-08-05 12:23:00,53.4,52.1,29.81,North,0,0.0,-999.0,95,0.00,,,-99.99,,2013-08-05 20:23:00,
2013-08-05 12:28:00,53.2,51.9,29.81,North,0,0.0,-999.0,95,0.00,,,-99.99,,2013-08-05 20:28:00,
2013-08-05 12:33:00,53.1,51.9,29.81,North,0,0.0,-999.0,95,0.00,,,-99.99,,2013-08-05 20:33:00,
2013-08-05 12:39:00,53.2,52.0,29.81,North,0,0.0,-999.0,95,0.00,,,-99.99,,2013-08-05 20:39:00,
2013-08-05 12:44:00,53.0,51.8,29.81,North,0,0.0,-999.0,95,0.00,,,-99.99,,2013-08-05 20:44:00,
2013-08-05 12:49:00,53.2,51.9,29.81,North,0,0.0,-999.0,95,0.00,,,-99.99,,2013-08-05 20:49:00,
2013-08-05 12:54:00,53.3,52.1,29.81,North,0,0.0,-999.0,95,0.00,,,-99.99,,2013-08-05 20:54:00,
2013-08-05 12:59:00,53.5,52.4,29.81,North,0,0.0,-999.0,95,0.00,,,-99.99,,2013-08-05 20:59:00,
2013-08-05 13:04:00,53.0,51.8,29.82,North,0,0.0,-999.0,95,0.00,,,-99.99,,2013-08-05 21:04:00,
2013-08-05 13:09:00,53.2,52.1,29.82,North,0,0.0,-999.0,95,0.00,,,-99.99,,2013-08-05 21:09:00,
2013-08-05 13:14:00,53.1,52.0,29.82,North,0,0.0,-999.0,95,0.00,,,-99.99,,2013-08-05 21:14:00,
2013-08-05 13:19:00,53.5,52.4,29.82,North,0,0.0,-999.0,96,0.00,,,-99.99,,2013-08-05 21:19:00,
2013-08-05 13:24:00,53.5,52.3,29.82,North,0,0.0,-999.0,95,0.00,,,-99.99,,2013-08-05 21:24:00,
2013-08-05 13:29:00,53.7,52.5,29.82,North,0,0.0,-999.0,95,0.00,,,-99.99,,2013-08-05 21:29:00,
2013-08-05 13:37:00,53.3,52.1,29.82,North,0,0.0,-999.0,95,0.00,,,-99.99,,2013-08-05 21:37:00,
2013-08-05 13:42:00,53.2,52.0,29.82,North,0,0.0,-999.0,95,0.00,,,-99.99,,2013-08-05 21:42:00,
2013-08-05 13:48:00,53.0,51.8,29.82,North,0,0.0,-999.0,95,0.00,,,-99.99,,2013-08-05 21:48:00,
2013-08-05 13:53:00,52.9,51.9,29.82,North,0,0.0,-999.0,96,0.00,,,-99.99,,2013-08-05 21:53:00,
2013-08-05 14:00:00,52.9,51.7,29.80,North,0,0.0,-999.0,95,0.00,,,-99.99,,2013-08-05 22:00:00,
2013-08-05 14:06:00,53.0,51.9,29.80,North,0,0.0,-999.0,95,0.00,,,-99.99,,2013-08-05 22:06:00,
2013-08-05 14:12:00,53.5,52.5,29.80,North,0,0.0,-999.0,96,0.00,,,-99.99,,2013-08-05 22:12:00,
2013-08-05 14:18:00,53.2,52.1,29.80,North,0,0.0,-999.0,95,0.00,,,-99.99,,2013-08-05 22:18:00,
2013-08-05 14:26:00,53.4,52.2,29.80,North,0,0.0,-999.0,95,0.00,,,-99.99,,2013-08-05 22:26:00,
2013-08-05 14:31:00,53.2,52.1,29.80,North,0,0.0,-999.0,95,0.00,,,-99.99,,2013-08-05 22:31:00,
2013-08-05 14:36:00,53.4,52.3,29.80,North,0,0.0,-999.0,96,0.00,,,-99.99,,2013-08-05 22:36:00,
2013-08-05 14:42:00,53.4,52.2,29.80,North,0,0.0,-999.0,95,0.00,,,-99.99,,2013-08-05 22:42:00,
2013-08-05 14:47:00,53.0,51.8,29.80,North,0,0.0,-999.0,95,0.00,,,-99.99,,2013-08-05 22:47:00,
2013-08-05 14:53:00,52.9,51.7,29.80,North,0,0.0,-999.0,95,0.00,,,-99.99,,2013-08-05 22:53:00,
2013-08-05 14:58:00,53.0,51.8,29.80,North,0,0.0,-999.0,95,0.00,,,-99.99,,2013-08-05 22:58:00,
2013-08-05 15:03:00,52.9,51.8,29.79,North,0,0.0,-999.0,96,0.00,,,-99.99,,2013-08-05 23:03:00,
2013-08-05 15:08:00,52.9,51.9,29.79,North,0,0.0,-999.0,96,0.00,,,-99.99,,2013-08-05 23:08:00,
2013-08-05 15:13:00,53.1,52.1,29.79,North,0,0.0,-999.0,96,0.00,,,-99.99,,2013-08-05 23:13:00,
2013-08-05 15:19:00,53.1,52.1,29.79,North,0,0.0,-999.0,96,0.00,,,-99.99,,2013-08-05 23:19:00,
2013-08-05 15:24:00,53.4,52.4,29.79,North,0,0.0,-999.0,96,0.00,,,-99.99,,2013-08-05 23:24:00,
2013-08-05 15:30:00,53.4,52.3,29.79,North,0,0.0,-999.0,96,0.00,,,-99.99,,2013-08-05 23:30:00,
2013-08-05 15:35:00,53.0,51.9,29.79,North,0,0.0,-999.0,96,0.00,,,-99.99,,2013-08-05 23:35:00,
2013-08-05 15:43:00,53.2,52.2,29.79,North,0,0.0,-999.0,96,0.00,,,-99.99,,2013-08-05 23:43:00,
2013-08-05 15:48:00,53.0,52.0,29.79,North,0,0.0,-999.0,96,0.00,,,-99.99,,2013-08-05 23:48:00,
2013-08-05 15:53:00,53.5,52.5,29.79,North,0,0.0,-999.0,96,0.00,,,-99.99,,2013-08-05 23:53:00,
2013-08-05 15:58:00,53.5,52.6,29.79,North,0,0.0,-999.0,96,0.00,,,-99.99,,2013-08-05 23:58:00,
2013-08-05 16:03:00,53.3,52.2,29.80,North,0,0.0,-999.0,95,0.00,,,-99.99,,2013-08-06 00:03:00,
2013-08-05 16:08:00,53.2,52.1,29.80,North,0,0.0,-999.0,96,0.00,,,-99.99,,2013-08-06 00:08:00,
2013-08-05 16:13:00,53.5,52.6,29.80,North,0,0.0,-999.0,96,0.00,,,-99.99,,2013-08-06 00:13:00,
2013-08-05 16:18:00,53.4,52.5,29.80,North,0,0.0,-999.0,96,0.00,,,-99.99,,2013-08-06 00:18:00,
2013-08-05 16:25:00,53.6,52.6,29.80,North,0,0.0,-999.0,96,0.00,,,-99.99,,2013-08-06 00:25:00,
2013-08-05 16:30:00,53.5,52.5,29.80,North,0,0.0,-999.0,96,0.00,,,-99.99,,2013-08-06 00:30:00,
2013-08-05 16:35:00,53.6,52.7,29.80,North,0,0.0,-999.0,96,0.00,,,-99.99,,2013-08-06 00:35:00,
2013-08-05 16:40:00,53.6,52.6,29.80,North,0,0.0,-999.0,96,0.00,,,-99.99,,2013-08-06 00:40:00,
2013-08-05 16:45:00,53.3,52.2,29.80,North,0,0.0,-999.0,96,0.00,,,-99.99,,2013-08-06 00:45:00,
2013-08-05 16:50:00,53.2,52.1,29.80,North,0,0.0,-999.0,96,0.01,,,-99.99,,2013-08-06 00:50:00,
2013-08-05 16:57:00,53.5,52.6,29.80,North,0,0.0,-999.0,96,0.01,,,-99.99,,2013-08-06 00:57:00,
2013-08-05 17:04:00,53.3,52.3,29.80,North,0,0.0,-999.0,96,0.00,,,-99.99,,2013-08-06 01:04:00,
2013-08-05 17:09:00,53.1,52.1,29.80,North,0,0.0,-999.0,96,0.00,,,-99.99,,2013-08-06 01:09:00,
2013-08-05 17:14:00,53.2,52.3,29.80,North,0,0.0,-999.0,96,0.00,,,-99.99,,2013-08-06 01:14:00,
2013-08-05 17:19:00,53.4,52.4,29.80,North,0,0.0,-999.0,96,0.00,,,-99.99,,2013-08-06 01:19:00,
2013-08-05 17:24:00,53.2,52.2,29.80,North,0,0.0,-999.0,96,0.00,,,-99.99,,2013-08-06 01:24:00,
2013-08-05 17:29:00,53.5,52.6,29.80,North,0,0.0,-999.0,96,0.00,,,-99.99,,2013-08-06 01:29:00,
2013-08-05 17:34:00,53.2,52.2,29.80,North,0,0.0,-999.0,96,0.00,,,-99.99,,2013-08-06 01:34:00,
2013-08-05 17:39:00,53.3,52.3,29.80,North,0,0.0,-999.0,96,0.00,,,-99.99,,2013-08-06 01:39:00,
2013-08-05 17:44:00,53.2,52.2,29.80,North,0,0.0,-999.0,96,0.00,,,-99.99,,2013-08-06 01:44:00,
2013-08-05 17:49:00,53.3,52.4,29.80,North,0,0.0,-999.0,96,0.00,,,-99.99,,2013-08-06 01:49:00,
2013-08-05 17:54:00,53.1,52.1,29.80,North,0,0.0,-999.0,96,0.00,,,-99.99,,2013-08-06 01:54:00,
2013-08-05 17:59:00,53.2,52.2,29.80,North,0,0.0,-999.0,96,0.00,,,-99.99,,2013-08-06 01:59:00,
2013-08-05 18:04:00,53.4,52.5,29.78,North,0,0.0,-999.0,96,0.00,,,-99.99,,2013-08-06 02:04:00,
2013-08-05 18:09:00,53.0,52.1,29.78,North,0,0.0,-999.0,96,0.00,,,-99.99,,2013-08-06 02:09:00,
2013-08-05 18:14:00,53.0,52.0,29.78,North,0,0.0,-999.0,96,0.00,,,-99.99,,2013-08-06 02:14:00,
2013-08-05 18:19:00,53.0,52.1,29.78,North,0,0.0,-999.0,96,0.00,,,-99.99,,2013-08-06 02:19:00,
2013-08-05 18:24:00,53.0,52.1,29.78,North,0,0.0,-999.0,96,0.00,,,-99.99,,2013-08-06 02:24:00,
2013-08-05 18:31:00,52.9,51.9,29.78,North,0,0.0,-999.0,96,0.00,,,-99.99,,2013-08-06 02:31:00,
2013-08-05 18:38:00,53.1,52.2,29.78,North,0,0.0,-999.0,96,0.00,,,-99.99,,2013-08-06 02:38:00,
2013-08-05 18:45:00,52.9,52.0,29.78,North,0,0.0,-999.0,96,0.00,,,-99.99,,2013-08-06 02:45:00,
2013-08-05 18:52:00,53.0,52.1,29.78,North,0,0.0,-999.0,96,0.00,,,-99.99,,2013-08-06 02:52:00,
2013-08-05 18:57:00,52.9,52.0,29.78,North,0,0.0,-999.0,96,0.00,,,-99.99,,2013-08-06 02:57:00,
2013-08-05 19:02:00,53.0,52.1,29.77,North,0,0.0,-999.0,96,0.00,,,-99.99,,2013-08-06 03:02:00,
2013-08-05 19:07:00,52.9,51.9,29.77,North,0,0.0,-999.0,96,0.00,,,-99.99,,2013-08-06 03:07:00,
2013-08-05 19:12:00,52.8,51.9,29.77,North,0,0.0,-999.0,96,0.00,,,-99.99,,2013-08-06 03:12:00,
2013-08-05 19:17:00,52.4,51.5,29.77,North,0,0.0,-999.0,96,0.00,,,-99.99,,2013-08-06 03:17:00,
2013-08-05 19:24:00,52.3,51.4,29.77,North,0,0.0,-999.0,96,0.00,,,-99.99,,2013-08-06 03:24:00,
2013-08-05 19:29:00,52.2,51.3,29.77,North,0,0.0,-999.0,96,0.00,,,-99.99,,2013-08-06 03:29:00,
2013-08-05 19:34:00,51.9,51.0,29.77,North,0,0.0,-999.0,96,0.00,,,-99.99,,2013-08-06 03:34:00,
2013-08-05 19:42:00,52.0,51.1,29.77,North,0,0.0,-999.0,97,0.01,,,-99.99,,2013-08-06 03:42:00,
2013-08-05 19:47:00,52.0,51.2,29.77,North,0,0.0,-999.0,97,0.01,,,-99.99,,2013-08-06 03:47:00,
2013-08-05 19:52:00,52.4,51.7,29.77,North,0,0.0,-999.0,97,0.01,,,-99.99,,2013-08-06 03:52:00,
2013-08-05 19:57:00,52.4,51.6,29.77,North,0,0.0,-999.0,97,0.01,,,-99.99,,2013-08-06 03:57:00,
2013-08-05 20:02:00,52.4,51.7,29.74,North,0,0.0,-999.0,97,0.00,,,-99.99,,2013-08-06 04:02:00,
2013-08-05 20:04:00,52.6,51.8,29.74,North,0,0.0,-999.0,97,0.00,,,-99.99,,2013-08-06 04:04:00,
2013-08-05 20:09:00,52.6,51.9,29.74,North,0,0.0,-999.0,97,0.00,,,-99.99,,2013-08-06 04:09:00,
2013-08-05 20:12:00,52.2,51.5,29.74,North,0,0.0,-999.0,97,0.00,,,-99.99,,2013-08-06 04:12:00,
2013-08-05 20:13:00,52.2,51.5,29.74,North,0,0.0,-999.0,97,0.00,,,-99.99,,2013-08-06 04:13:00,
2013-08-05 20:18:00,52.5,51.7,29.74,North,0,0.0,-999.0,97,0.00,,,-99.99,,2013-08-06 04:18:00,
2013-08-05 20:23:00,52.4,51.7,29.74,North,0,0.0,-999.0,97,0.00,,,-99.99,,2013-08-06 04:23:00,
2013-08-05 20:28:00,52.9,52.2,29.74,North,0,0.0,-999.0,97,0.00,,,-99.99,,2013-08-06 04:28:00,
2013-08-05 20:33:00,52.8,52.0,29.74,North,0,0.0,-999.0,96,0.00,,,-99.99,,2013-08-06 04:33:00,
2013-08-05 20:38:00,52.7,51.8,29.74,North,0,0.0,-999.0,96,0.00,,,-99.99,,2013-08-06 04:38:00,
2013-08-05 20:43:00,52.6,51.7,29.74,North,0,0.0,-999.0,96,0.00,,,-99.99,,2013-08-06 04:43:00,
2013-08-05 20:48:00,52.6,51.8,29.74,North,0,0.0,-999.0,96,0.00,,,-99.99,,2013-08-06 04:48:00,
2013-08-05 20:53:00,52.5,51.6,29.74,North,0,0.0,-999.0,96,0.00,,,-99.99,,2013-08-06 04:53:00,
2013-08-05 20:58:00,52.8,51.9,29.74,North,0,0.0,-999.0,96,0.00,,,-99.99,,2013-08-06 04:58:00,
2013-08-05 21:03:00,52.5,51.5,29.73,North,0,0.0,-999.0,96,0.00,,,-99.99,,2013-08-06 05:03:00,
2013-08-05 21:08:00,52.3,51.3,29.73,North,0,0.0,-999.0,96,0.01,,,-99.99,,2013-08-06 05:08:00,
2013-08-05 21:13:00,52.2,51.2,29.73,North,0,0.0,-999.0,96,0.01,,,-99.99,,2013-08-06 05:13:00,
2013-08-05 21:18:00,52.4,51.5,29.73,North,0,0.0,-999.0,96,0.01,,,-99.99,,2013-08-06 05:18:00,
2013-08-05 21:23:00,52.4,51.3,29.73,North,0,0.0,-999.0,96,0.01,,,-99.99,,2013-08-06 05:23:00,
2013-08-05 21:28:00,52.6,51.5,29.73,North,0,0.0,-999.0,96,0.01,,,-99.99,,2013-08-06 05:28:00,
2013-08-05 21:33:00,52.7,51.7,29.73,North,0,0.0,-999.0,96,0.01,,,-99.99,,2013-08-06 05:33:00,
2013-08-05 21:38:00,52.6,51.3,29.73,North,0,0.0,-999.0,95,0.01,,,-99.99,,2013-08-06 05:38:00,
2013-08-05 21:43:00,52.5,51.3,29.73,North,0,0.0,-999.0,95,0.01,,,-99.99,,2013-08-06 05:43:00,
2013-08-05 21:48:00,52.2,51.0,29.73,North,0,0.0,-999.0,95,0.01,,,-99.99,,2013-08-06 05:48:00,
2013-08-05 21:53:00,52.1,51.0,29.73,North,0,0.0,-999.0,95,0.01,,,-99.99,,2013-08-06 05:53:00,
2013-08-05 21:58:00,52.1,51.0,29.73,North,0,0.0,-999.0,96,0.01,,,-99.99,,2013-08-06 05:58:00,
2013-08-05 22:03:00,52.1,51.1,29.74,North,0,0.0,-999.0,96,0.00,,,-99.99,,2013-08-06 06:03:00,
2013-08-05 22:08:00,52.1,51.1,29.74,North,0,0.0,-999.0,96,0.00,,,-99.99,,2013-08-06 06:08:00,
2013-08-05 22:13:00,52.0,51.0,29.74,North,0,0.0,-999.0,96,0.00,,,-99.99,,2013-08-06 06:13:00,
2013-08-05 22:18:00,51.9,50.9,29.74,North,0,0.0,-999.0,96,0.00,,,-99.99,,2013-08-06 06:18:00,
2013-08-05 22:23:00,52.0,51.0,29.74,North,0,0.0,-999.0,96,0.01,,,-99.99,,2013-08-06 06:23:00,
2013-08-05 22:28:00,51.9,50.9,29.74,North,0,0.0,-999.0,96,0.01,,,-99.99,,2013-08-06 06:28:00,
2013-08-05 22:33:00,51.7,50.6,29.74,North,0,0.0,-999.0,96,0.01,,,-99.99,,2013-08-06 06:33:00,
2013-08-05 22:38:00,51.8,50.7,29.74,North,0,0.0,-999.0,96,0.01,,,-99.99,,2013-08-06 06:38:00,
2013-08-05 22:43:00,51.6,50.6,29.74,North,0,0.0,-999.0,96,0.01,,,-99.99,,2013-08-06 06:43:00,
2013-08-05 22:48:00,51.5,50.5,29.74,North,0,0.0,-999.0,96,0.01,,,-99.99,,2013-08-06 06:48:00,
2013-08-05 22:53:00,51.5,50.5,29.74,North,0,0.0,-999.0,96,0.01,,,-99.99,,2013-08-06 06:53:00,
2013-08-05 22:58:00,51.4,50.5,29.74,North,0,0.0,-999.0,96,0.01,,,-99.99,,2013-08-06 06:58:00,
2013-08-05 23:03:00,51.4,50.5,29.72,North,0,0.0,-999.0,96,0.00,,,-99.99,,2013-08-06 07:03:00,
2013-08-05 23:08:00,51.3,50.4,29.72,North,0,0.0,-999.0,96,0.00,,,-99.99,,2013-08-06 07:08:00,
2013-08-05 23:13:00,51.2,50.3,29.72,North,0,0.0,-999.0,96,0.00,,,-99.99,,2013-08-06 07:13:00,
2013-08-05 23:18:00,51.2,50.3,29.72,North,0,0.0,-999.0,96,0.00,,,-99.99,,2013-08-06 07:18:00,
2013-08-05 23:23:00,51.2,50.3,29.72,North,0,0.0,-999.0,96,0.01,,,-99.99,,2013-08-06 07:23:00,
2013-08-05 23:28:00,51.2,50.3,29.72,North,0,0.0,-999.0,96,0.01,,,-99.99,,2013-08-06 07:28:00,
2013-08-05 23:33:00,51.2,50.3,29.72,North,0,0.0,-999.0,96,0.01,,,-99.99,,2013-08-06 07:33:00,
2013-08-05 23:38:00,51.1,50.3,29.72,North,0,0.0,-999.0,96,0.01,,,-99.99,,2013-08-06 07:38:00,
2013-08-05 23:43:00,51.1,50.3,29.72,North,0,0.0,-999.0,96,0.01,,,-99.99,,2013-08-06 07:43:00,
2013-08-05 23:48:00,51.1,50.3,29.72,North,0,0.0,-999.0,96,0.02,,,-99.99,,2013-08-06 07:48:00,
2013-08-05 23:53:00,51.0,50.1,29.72,North,0,0.0,-999.0,96,0.02,,,-99.99,,2013-08-06 07:53:00,
2013-08-05 23:58:00,51.1,50.3,29.72,North,0,0.0,-999.0,96,0.02,,,-99.99,,2013-08-06 07:58:00,